South Royalton, Vermont
Current Conditions -  °F | °C
As of 8:53 PM on Saturday 22 Nov 2014 (Local Time) from KLEB Reporting Station
Overcast Overcast  
Wind Chill: 32°   Ceiling: 3200
Heat Index: 39°   Visibility: 10mi
Dew Point: 20°   Wind: 12mph
Humidity: 46%   Direction: 180°S
Pressure: 29.97"   Gusts: NA
Location:  43.82°N, 72.52°W
Report Text: KLEB 230153Z 18010KT 10SM BKN032 BKN050 OVC095 04/M07 A2997 RMK AO2 SLP156 T00391067
Loading
Personal Weather Stations






























Interactive Weather Map New forecast layout! Learn more

10-Day Weather Forecast

Advertisements
Track Severe Weather on mobile